Time;durP1;ratioP1;P1;durP2;ratioP2;P2;SDS_P1;SDS_P2;PMS_P1;PMS_P2;Temp;Humidity;BMP_temperature;BMP_pressure;BME280_temperature;BME280_humidity;BME280_pressure;Samples;Min_cycle;Max_cycle;Signal;HPM_P1;HPM_P2
2022/12/21 00:01:41;;;;;;;21.50;13.43;;;-0.20;99.90;;;;;;5050152;28;20199;-81
2022/12/21 00:04:16;;;;;;;17.13;12.50;;;-0.20;99.90;;;;;;5050616;28;20229;-80
2022/12/21 00:06:44;;;;;;;16.67;12.07;;;-0.20;99.90;;;;;;5055137;28;20224;-79
2022/12/21 00:09:14;;;;;;;16.87;11.20;;;-0.20;99.90;;;;;;5055867;28;20212;-80
2022/12/21 00:11:43;;;;;;;16.07;12.50;;;-0.20;99.90;;;;;;5055618;28;20277;-81
2022/12/21 00:14:11;;;;;;;15.87;12.40;;;-0.20;99.90;;;;;;5055531;28;20226;-80
2022/12/21 00:16:43;;;;;;;15.07;12.00;;;-0.20;99.90;;;;;;5055540;28;20210;-78
2022/12/21 00:19:14;;;;;;;14.27;10.90;;;-0.20;99.90;;;;;;5056332;28;20296;-80
2022/12/21 00:21:42;;;;;;;17.13;12.63;;;-0.20;99.90;;;;;;5055778;28;20228;-79
2022/12/21 00:24:11;;;;;;;18.63;11.47;;;-0.20;99.90;;;;;;5055557;28;20230;-80
2022/12/21 00:26:40;;;;;;;22.33;13.80;;;-0.20;99.90;;;;;;5055484;28;20202;-80
2022/12/21 00:29:08;;;;;;;21.47;11.67;;;-0.10;99.90;;;;;;5055573;28;20351;-80
2022/12/21 00:31:38;;;;;;;23.17;12.50;;;-0.10;99.90;;;;;;5055104;28;20206;-80
2022/12/21 00:34:08;;;;;;;22.03;12.00;;;-0.10;99.90;;;;;;5035293;28;20225;-80
2022/12/21 00:36:36;;;;;;;20.33;13.87;;;-0.10;99.90;;;;;;5054086;28;20209;-80
2022/12/21 00:39:04;;;;;;;20.23;12.33;;;-0.10;99.90;;;;;;5055558;28;20212;-80
2022/12/21 00:41:33;;;;;;;14.27;11.50;;;-0.10;99.90;;;;;;5054992;28;20209;-80
2022/12/21 00:44:01;;;;;;;19.30;12.87;;;-0.10;99.90;;;;;;5055037;28;20202;-80
2022/12/21 00:46:31;;;;;;;14.37;10.77;;;-0.10;99.90;;;;;;5054872;28;20209;-80
2022/12/21 00:49:01;;;;;;;13.47;10.80;;;-0.10;99.90;;;;;;5054261;28;20296;-79
2022/12/21 00:51:33;;;;;;;14.83;10.83;;;-0.10;99.90;;;;;;5055036;28;20204;-80
2022/12/21 00:54:02;;;;;;;14.47;10.43;;;-0.10;99.90;;;;;;5055033;28;20209;-80
2022/12/21 00:56:30;;;;;;;13.90;11.57;;;-0.10;99.90;;;;;;5054504;28;20202;-79
2022/12/21 00:58:58;;;;;;;16.97;11.60;;;-0.20;99.90;;;;;;5053674;28;20205;-80
2022/12/21 01:01:29;;;;;;;17.57;12.37;;;-0.20;99.90;;;;;;5054776;28;20210;-79
2022/12/21 01:03:58;;;;;;;12.63;10.83;;;-0.10;99.90;;;;;;5055075;28;20210;-81
2022/12/21 01:06:28;;;;;;;14.47;11.23;;;-0.20;99.90;;;;;;5054949;28;20240;-80
2022/12/21 01:08:58;;;;;;;11.97;10.37;;;-0.10;99.90;;;;;;5054104;28;20224;-80
2022/12/21 01:11:28;;;;;;;14.30;11.20;;;-0.20;99.90;;;;;;5054265;28;20285;-79
2022/12/21 01:13:57;;;;;;;12.67;11.17;;;-0.10;99.90;;;;;;5054314;28;20201;-80
2022/12/21 01:16:28;;;;;;;15.63;11.57;;;-0.10;99.90;;;;;;5054595;28;20210;-80
2022/12/21 01:18:56;;;;;;;14.93;11.87;;;-0.10;99.90;;;;;;5054585;28;20198;-80
2022/12/21 01:21:27;;;;;;;13.37;11.33;;;0.00;99.90;;;;;;5054454;28;20209;-79
2022/12/21 01:23:56;;;;;;;17.17;13.07;;;0.00;99.90;;;;;;5054097;28;20218;-80
2022/12/21 01:26:27;;;;;;;18.33;12.33;;;-0.10;99.90;;;;;;5054000;28;20202;-80
2022/12/21 01:28:55;;;;;;;14.13;11.27;;;-0.10;99.90;;;;;;5054065;28;20328;-79
2022/12/21 01:31:23;;;;;;;21.93;12.93;;;-0.10;99.90;;;;;;5054300;28;20237;-80
2022/12/21 01:33:52;;;;;;;15.47;11.33;;;-0.10;99.90;;;;;;5053979;28;20202;-80
2022/12/21 01:36:20;;;;;;;14.67;12.40;;;-0.10;99.90;;;;;;5054300;28;20209;-80
2022/12/21 01:38:48;;;;;;;17.87;12.10;;;-0.10;99.90;;;;;;5053926;28;20212;-80
2022/12/21 01:41:19;;;;;;;16.20;11.40;;;-0.10;99.90;;;;;;5053490;28;20198;-80
2022/12/21 01:43:51;;;;;;;14.60;11.73;;;-0.10;99.90;;;;;;5054121;28;20201;-79
2022/12/21 01:46:28;;;;;;;12.07;10.67;;;0.00;99.90;;;;;;5053975;28;20213;-80
2022/12/21 01:49:04;;;;;;;14.37;11.07;;;0.00;99.90;;;;;;5053742;28;20218;-79
2022/12/21 01:51:36;;;;;;;16.33;11.73;;;0.00;99.90;;;;;;5053695;28;20220;-79
2022/12/21 01:54:11;;;;;;;16.13;11.33;;;0.00;99.90;;;;;;5054263;28;20242;-79
2022/12/21 01:56:41;;;;;;;14.83;11.13;;;-0.10;99.90;;;;;;5053646;28;20355;-79
2022/12/21 01:59:15;;;;;;;17.77;12.03;;;-0.10;99.90;;;;;;5053793;28;20217;-79
2022/12/21 02:01:43;;;;;;;16.13;11.63;;;-0.10;99.90;;;;;;5053384;28;20201;-79
2022/12/21 02:04:12;;;;;;;16.67;11.77;;;-0.10;99.90;;;;;;5054074;28;20233;-79
2022/12/21 02:06:45;;;;;;;17.83;12.43;;;-0.10;99.90;;;;;;5053186;28;20217;-79
2022/12/21 02:09:15;;;;;;;15.53;11.53;;;-0.10;99.90;;;;;;5053473;28;20217;-81
2022/12/21 02:11:43;;;;;;;17.80;12.07;;;-0.10;99.90;;;;;;5050980;28;20198;-80
2022/12/21 02:14:14;;;;;;;25.43;13.60;;;-0.20;99.90;;;;;;5053399;28;20232;-80
2022/12/21 02:16:56;;;;;;;21.87;13.33;;;-0.10;99.90;;;;;;5053232;28;20216;-80
2022/12/21 02:20:15;;;;;;;16.53;11.33;;;-0.10;99.90;;;;;;5053216;28;20216;-80
2022/12/21 02:23:05;;;;;;;13.83;10.63;;;-0.10;99.90;;;;;;4988500;28;20252;-80
2022/12/21 02:25:53;;;;;;;16.40;11.50;;;-0.10;99.90;;;;;;5053153;28;20236;-80
2022/12/21 02:28:42;;;;;;;21.50;11.03;;;-0.10;99.90;;;;;;5052511;28;20236;-79
2022/12/21 02:31:22;;;;;;;15.83;11.37;;;-0.10;99.90;;;;;;5053186;28;20220;-80
2022/12/21 02:34:03;;;;;;;13.73;10.83;;;-0.10;99.90;;;;;;5052858;28;20201;-79
2022/12/21 02:36:42;;;;;;;15.87;12.00;;;-0.20;99.90;;;;;;5053100;28;20198;-80
2022/12/21 02:39:19;;;;;;;15.70;11.30;;;-0.20;99.90;;;;;;5053060;28;20217;-80
2022/12/21 02:41:59;;;;;;;14.30;10.50;;;-0.20;99.90;;;;;;5052878;28;20213;-80
2022/12/21 02:44:39;;;;;;;15.90;10.10;;;-0.20;99.90;;;;;;5052989;28;20234;-81
2022/12/21 02:47:12;;;;;;;15.80;11.90;;;-0.20;99.90;;;;;;5052877;28;20205;-80
2022/12/21 02:49:48;;;;;;;23.97;12.43;;;-0.30;99.90;;;;;;5052725;28;20233;-81
2022/12/21 02:52:26;;;;;;;17.47;11.90;;;-0.20;99.90;;;;;;5052720;28;20215;-81
2022/12/21 02:54:58;;;;;;;17.90;11.60;;;-0.30;99.90;;;;;;5052937;28;20280;-80
2022/12/21 02:57:33;;;;;;;13.43;10.53;;;-0.20;99.90;;;;;;5052115;28;20205;-80
2022/12/21 03:00:04;;;;;;;13.73;10.70;;;-0.20;99.90;;;;;;5052321;28;20207;-80
2022/12/21 03:05:56;;;;;;;14.93;9.97;;;-0.20;99.90;;;;;;5051689;28;20232;-81
2022/12/21 03:08:32;;;;;;;13.17;10.33;;;-0.20;99.90;;;;;;5052346;28;20232;-80
2022/12/21 03:11:04;;;;;;;14.60;11.40;;;-0.20;99.90;;;;;;5052257;28;20208;-79
2022/12/21 03:13:40;;;;;;;14.50;11.20;;;-0.20;99.90;;;;;;5052542;28;20205;-78
2022/12/21 03:16:16;;;;;;;14.90;11.40;;;-0.20;99.90;;;;;;5052377;28;20313;-80
2022/12/21 03:18:58;;;;;;;14.93;11.07;;;-0.10;99.90;;;;;;5052203;28;20216;-79
2022/12/21 03:21:32;;;;;;;21.97;12.37;;;-0.10;99.90;;;;;;5052037;28;20202;-80
2022/12/21 03:24:08;;;;;;;20.67;12.23;;;-0.10;99.90;;;;;;5052008;28;20225;-79
2022/12/21 03:26:42;;;;;;;20.43;13.53;;;-0.10;99.90;;;;;;5052068;28;20201;-79
2022/12/21 03:29:16;;;;;;;15.50;12.03;;;0.00;99.90;;;;;;5052323;28;20217;-79
2022/12/21 03:31:47;;;;;;;17.27;12.90;;;-0.10;99.90;;;;;;5052752;28;20241;-79
2022/12/21 03:34:21;;;;;;;20.23;12.93;;;-0.10;99.90;;;;;;5052098;28;20232;-80
2022/12/21 03:36:53;;;;;;;18.50;11.93;;;-0.10;99.90;;;;;;5052637;28;20213;-80
2022/12/21 03:39:24;;;;;;;17.63;12.40;;;-0.10;99.90;;;;;;5051854;28;20288;-79
2022/12/21 03:41:56;;;;;;;17.43;11.53;;;-0.10;99.90;;;;;;5052876;28;20209;-80
2022/12/21 03:44:36;;;;;;;17.20;12.83;;;-0.10;99.90;;;;;;5051961;28;20226;-81
2022/12/21 03:47:09;;;;;;;17.03;11.97;;;-0.10;99.90;;;;;;5051373;28;20284;-79
2022/12/21 03:49:43;;;;;;;16.00;12.43;;;-0.10;99.90;;;;;;5051783;28;20214;-79
2022/12/21 03:52:14;;;;;;;17.30;13.23;;;-0.10;99.90;;;;;;5052518;28;20216;-80
2022/12/21 03:54:48;;;;;;;18.77;12.90;;;0.00;99.90;;;;;;5051918;28;20225;-79
2022/12/21 03:57:18;;;;;;;14.87;12.23;;;-0.10;99.90;;;;;;5051797;28;20202;-79
2022/12/21 03:59:51;;;;;;;19.60;11.00;;;-0.10;99.90;;;;;;5051845;28;20259;-80
2022/12/21 04:02:24;;;;;;;16.13;12.40;;;-0.10;99.90;;;;;;5051855;28;20274;-79
2022/12/21 04:04:58;;;;;;;27.57;14.17;;;-0.10;99.90;;;;;;5051804;28;20227;-79
2022/12/21 04:07:28;;;;;;;21.80;13.40;;;-0.10;99.90;;;;;;5052058;28;20217;-80
2022/12/21 04:09:58;;;;;;;16.13;11.50;;;0.00;99.90;;;;;;5052078;28;20228;-79
2022/12/21 04:12:39;;;;;;;13.77;10.87;;;0.00;99.90;;;;;;5051808;28;20264;-79
2022/12/21 04:15:10;;;;;;;14.80;11.40;;;-0.10;99.90;;;;;;5051688;28;20224;-80
2022/12/21 04:17:39;;;;;;;12.70;10.03;;;0.00;99.90;;;;;;5051775;28;20237;-80
2022/12/21 04:20:10;;;;;;;19.30;11.90;;;0.00;99.90;;;;;;5051748;28;20198;-79
2022/12/21 04:28:17;;;;;;;19.83;12.33;;;0.00;99.90;;;;;;5050775;28;20206;-80
2022/12/21 04:31:05;;;;;;;14.97;11.53;;;-0.10;99.90;;;;;;5051493;28;20193;-79
2022/12/21 04:33:33;;;;;;;16.47;11.43;;;0.00;99.90;;;;;;5052410;28;20225;-79
2022/12/21 04:38:49;;;;;;;15.53;10.73;;;0.00;99.90;;;;;;5054928;28;20210;-79
2022/12/21 04:41:17;;;;;;;23.37;12.33;;;-0.10;99.90;;;;;;5055109;28;20213;-80
2022/12/21 04:43:45;;;;;;;17.93;11.93;;;0.00;99.90;;;;;;5054871;28;20212;-79
2022/12/21 04:46:15;;;;;;;11.83;10.23;;;-0.10;99.90;;;;;;5055248;28;20210;-79
2022/12/21 04:48:45;;;;;;;16.40;12.10;;;-0.10;99.90;;;;;;5054560;28;20202;-79
2022/12/21 04:51:16;;;;;;;18.80;12.10;;;-0.10;99.90;;;;;;5054969;28;20260;-79
2022/12/21 04:53:45;;;;;;;32.07;12.13;;;-0.10;99.90;;;;;;5054921;28;20207;-79
2022/12/21 04:56:14;;;;;;;16.10;13.20;;;-0.10;99.90;;;;;;5055134;28;20210;-79
2022/12/21 04:58:42;;;;;;;20.47;12.20;;;-0.10;99.90;;;;;;5054706;28;20214;-79
2022/12/21 05:01:12;;;;;;;17.93;12.83;;;-0.10;99.90;;;;;;5054288;28;20198;-80
2022/12/21 05:03:40;;;;;;;18.43;13.27;;;-0.10;99.90;;;;;;5054845;28;20209;-79
2022/12/21 05:06:11;;;;;;;13.67;11.07;;;-0.10;99.90;;;;;;5054446;28;20225;-79
2022/12/21 05:08:40;;;;;;;15.77;11.77;;;-0.10;99.90;;;;;;5054528;28;20208;-79
2022/12/21 05:11:11;;;;;;;16.63;12.63;;;-0.10;99.90;;;;;;5054278;28;20233;-80
2022/12/21 05:13:40;;;;;;;17.50;12.10;;;-0.20;99.90;;;;;;5054545;28;20210;-79
2022/12/21 05:16:10;;;;;;;18.57;12.30;;;-0.20;99.90;;;;;;5054040;28;20217;-79
2022/12/21 05:18:38;;;;;;;18.70;12.03;;;-0.20;99.90;;;;;;5046176;28;20247;-79
2022/12/21 05:21:07;;;;;;;18.10;12.90;;;-0.20;99.90;;;;;;5046764;28;20220;-79
2022/12/21 05:23:35;;;;;;;14.43;11.23;;;-0.20;99.90;;;;;;5042099;28;20205;-79
2022/12/21 05:26:06;;;;;;;18.40;11.83;;;-0.20;99.90;;;;;;5044777;28;20221;-80
2022/12/21 05:28:43;;;;;;;17.93;11.63;;;-0.20;99.90;;;;;;5041859;28;20205;-79
2022/12/21 05:31:13;;;;;;;12.83;10.90;;;-0.20;99.90;;;;;;5053817;28;20222;-78
2022/12/21 05:33:41;;;;;;;20.93;12.10;;;-0.20;99.90;;;;;;5054364;28;20213;-79
2022/12/21 05:36:11;;;;;;;14.43;11.33;;;-0.20;99.90;;;;;;5053918;28;20221;-81
2022/12/21 05:38:40;;;;;;;18.27;12.37;;;-0.10;99.90;;;;;;5054355;28;20217;-79
2022/12/21 05:41:11;;;;;;;17.73;11.87;;;-0.10;99.90;;;;;;5053736;28;20209;-79
2022/12/21 05:43:40;;;;;;;15.97;11.80;;;-0.10;99.90;;;;;;5053878;28;20217;-79
2022/12/21 05:46:10;;;;;;;13.20;10.07;;;-0.10;99.90;;;;;;5053838;28;20248;-79
2022/12/21 05:48:39;;;;;;;14.27;10.77;;;-0.20;99.90;;;;;;5053485;28;20202;-79
2022/12/21 05:51:09;;;;;;;11.70;10.13;;;-0.20;99.90;;;;;;5053960;28;20222;-79
2022/12/21 05:53:40;;;;;;;15.27;11.77;;;-0.20;99.90;;;;;;5053460;28;20209;-79
2022/12/21 05:56:10;;;;;;;13.77;10.90;;;-0.20;99.90;;;;;;5053548;28;20268;-79
2022/12/21 05:58:38;;;;;;;14.90;11.33;;;-0.20;99.90;;;;;;5053117;28;20289;-79
2022/12/21 06:01:09;;;;;;;15.33;11.67;;;-0.10;99.90;;;;;;5054195;28;20201;-79
2022/12/21 06:03:37;;;;;;;16.27;11.53;;;-0.20;99.90;;;;;;5053559;28;20210;-79
2022/12/21 06:06:07;;;;;;;16.80;12.37;;;-0.10;99.90;;;;;;5053178;28;20221;-79
2022/12/21 06:08:37;;;;;;;13.93;10.77;;;-0.10;99.90;;;;;;5053587;28;20216;-80
2022/12/21 06:11:07;;;;;;;17.83;11.83;;;-0.20;99.90;;;;;;5053211;28;20214;-79
2022/12/21 06:13:37;;;;;;;13.67;10.90;;;-0.20;99.90;;;;;;5042216;28;20213;-79
2022/12/21 06:16:08;;;;;;;15.87;11.43;;;-0.20;99.90;;;;;;5053273;28;20228;-79
2022/12/21 06:18:37;;;;;;;14.83;11.80;;;-0.30;99.90;;;;;;5053284;28;20300;-79
2022/12/21 06:21:05;;;;;;;15.87;10.73;;;-0.20;99.90;;;;;;5052561;28;20234;-79
2022/12/21 06:23:34;;;;;;;17.93;12.77;;;-0.30;99.90;;;;;;5039745;28;20204;-80
2022/12/21 06:26:04;;;;;;;13.37;10.93;;;-0.20;99.90;;;;;;5041010;28;20224;-80
2022/12/21 06:28:33;;;;;;;14.13;11.23;;;-0.20;99.90;;;;;;5043626;28;20209;-81
2022/12/21 06:31:07;;;;;;;14.77;11.40;;;-0.20;99.90;;;;;;5045369;28;20213;-80
2022/12/21 06:33:36;;;;;;;17.30;11.30;;;-0.20;99.90;;;;;;5041192;28;20233;-79
2022/12/21 06:36:07;;;;;;;16.43;11.70;;;-0.20;99.90;;;;;;5043753;28;20261;-82
2022/12/21 06:38:35;;;;;;;11.50;9.47;;;-0.10;99.90;;;;;;5039952;28;20202;-81
2022/12/21 06:41:06;;;;;;;19.13;11.37;;;-0.20;99.90;;;;;;5045769;28;20204;-82
2022/12/21 06:43:36;;;;;;;14.90;11.93;;;-0.20;99.90;;;;;;5042585;28;20210;-80
2022/12/21 06:46:08;;;;;;;13.10;10.40;;;-0.10;99.90;;;;;;5041516;28;20260;-81
2022/12/21 06:48:37;;;;;;;18.80;12.20;;;-0.10;99.90;;;;;;5041016;28;20198;-78
2022/12/21 06:51:07;;;;;;;18.93;12.40;;;-0.10;99.90;;;;;;5038751;28;20306;-79
2022/12/21 06:53:37;;;;;;;15.67;11.50;;;-0.10;99.90;;;;;;5044876;28;20200;-83
2022/12/21 06:56:07;;;;;;;13.60;11.23;;;0.00;99.90;;;;;;5039713;28;20233;-82
2022/12/21 06:58:46;;;;;;;16.07;12.07;;;-0.10;99.90;;;;;;5048048;28;20229;-83
2022/12/21 07:01:17;;;;;;;15.47;12.13;;;-0.10;99.90;;;;;;5046998;28;20220;-81
2022/12/21 07:03:46;;;;;;;15.23;11.60;;;-0.10;99.90;;;;;;5050947;28;20266;-81
2022/12/21 07:06:16;;;;;;;31.30;14.23;;;-0.20;99.90;;;;;;5050987;28;20217;-82
2022/12/21 07:08:44;;;;;;;15.60;12.27;;;-0.20;99.90;;;;;;5051356;28;20274;-82
2022/12/21 07:11:14;;;;;;;15.77;12.17;;;-0.20;99.90;;;;;;5051667;28;20225;-80
2022/12/21 07:13:45;;;;;;;18.53;13.33;;;-0.10;99.90;;;;;;5052208;28;20230;-81
2022/12/21 07:16:15;;;;;;;16.00;12.13;;;-0.10;99.90;;;;;;5051529;28;20301;-81
2022/12/21 07:18:44;;;;;;;25.17;14.57;;;-0.10;99.90;;;;;;5051765;28;20205;-81
2022/12/21 07:21:14;;;;;;;19.83;13.17;;;-0.10;99.90;;;;;;5051954;28;20208;-80
2022/12/21 07:23:43;;;;;;;18.60;12.47;;;-0.10;99.90;;;;;;5051900;28;20217;-81
2022/12/21 07:26:14;;;;;;;19.73;13.93;;;-0.10;99.90;;;;;;5051673;28;20205;-81
2022/12/21 07:28:44;;;;;;;19.73;13.93;;;-0.10;99.90;;;;;;5051642;28;20202;-83
2022/12/21 07:31:16;;;;;;;22.23;12.73;;;-0.10;99.90;;;;;;5051571;28;20226;-81
2022/12/21 07:33:44;;;;;;;17.13;12.73;;;-0.10;99.90;;;;;;5051918;28;20209;-81
2022/12/21 07:36:13;;;;;;;24.10;12.70;;;-0.10;99.90;;;;;;5051428;28;20220;-80
2022/12/21 07:38:42;;;;;;;19.60;13.40;;;-0.10;99.90;;;;;;5051405;28;20202;-82
2022/12/21 07:41:13;;;;;;;19.10;13.83;;;-0.10;99.90;;;;;;5051583;28;20237;-81
2022/12/21 07:43:41;;;;;;;19.43;13.70;;;0.00;99.90;;;;;;5051288;28;20211;-81
2022/12/21 07:46:10;;;;;;;24.17;13.03;;;0.00;99.90;;;;;;5051625;28;20256;-81
2022/12/21 07:48:40;;;;;;;23.53;15.50;;;0.00;99.90;;;;;;5051008;28;20206;-81
2022/12/21 07:51:09;;;;;;;19.63;14.03;;;0.00;99.90;;;;;;5051570;28;20218;-80
2022/12/21 07:53:37;;;;;;;19.70;14.33;;;0.00;99.90;;;;;;5051478;28;20214;-80
2022/12/21 07:56:08;;;;;;;17.77;13.43;;;0.00;99.90;;;;;;5051278;28;20226;-80
2022/12/21 07:58:36;;;;;;;20.53;13.67;;;0.00;99.90;;;;;;5051073;28;20264;-81
2022/12/21 08:01:09;;;;;;;17.83;12.87;;;0.00;99.90;;;;;;5051637;28;20281;-80
2022/12/21 08:03:41;;;;;;;21.63;13.60;;;0.00;99.90;;;;;;5051565;28;20221;-80
2022/12/21 08:06:10;;;;;;;19.87;13.47;;;0.00;99.90;;;;;;5051343;28;20221;-80
2022/12/21 08:08:39;;;;;;;17.97;13.60;;;0.00;99.90;;;;;;5053897;28;20210;-80
2022/12/21 08:11:12;;;;;;;20.20;14.33;;;0.00;99.90;;;;;;5054896;28;20229;-81
2022/12/21 08:13:41;;;;;;;15.30;12.23;;;0.00;99.90;;;;;;5055156;28;20209;-81
2022/12/21 08:16:11;;;;;;;23.87;14.50;;;0.00;99.90;;;;;;5054670;28;20226;-80
2022/12/21 08:18:41;;;;;;;22.97;15.33;;;0.00;99.90;;;;;;5054915;28;20273;-80
2022/12/21 08:21:10;;;;;;;19.57;13.17;;;0.00;99.90;;;;;;5055477;28;20205;-81
2022/12/21 08:23:39;;;;;;;29.27;13.90;;;0.00;99.90;;;;;;5055007;28;20202;-81
2022/12/21 08:26:10;;;;;;;17.27;12.27;;;0.10;99.90;;;;;;5055304;28;20265;-81
2022/12/21 08:28:38;;;;;;;17.47;12.03;;;0.10;99.90;;;;;;5055138;28;20245;-82
2022/12/21 08:31:09;;;;;;;17.80;14.03;;;0.00;99.90;;;;;;5055135;28;20228;-81
2022/12/21 08:33:40;;;;;;;19.83;13.57;;;0.00;99.90;;;;;;5055248;28;20214;-81
2022/12/21 08:36:11;;;;;;;18.97;12.97;;;0.00;99.90;;;;;;5055363;28;20317;-81
2022/12/21 08:38:40;;;;;;;17.90;12.80;;;0.00;99.90;;;;;;5055107;28;20213;-81
2022/12/21 08:41:28;;;;;;;19.90;14.20;;;0.00;99.90;;;;;;5055223;28;20233;-80
2022/12/21 08:43:56;;;;;;;20.80;12.87;;;0.00;99.90;;;;;;5055083;28;20209;-80
2022/12/21 08:46:25;;;;;;;18.57;13.93;;;0.00;99.90;;;;;;5054917;28;20217;-80
2022/12/21 08:48:53;;;;;;;21.90;14.43;;;0.10;99.90;;;;;;5055015;28;20208;-81
2022/12/21 08:51:23;;;;;;;20.10;13.37;;;0.10;99.90;;;;;;5054942;28;20225;-81
2022/12/21 08:53:51;;;;;;;25.10;14.43;;;0.10;99.90;;;;;;5054886;28;20216;-80
2022/12/21 08:56:20;;;;;;;22.70;15.47;;;0.10;99.90;;;;;;5054656;28;20297;-80
2022/12/21 08:58:48;;;;;;;20.97;13.90;;;0.10;99.90;;;;;;5054309;28;20205;-81
2022/12/21 09:01:19;;;;;;;25.13;16.23;;;0.10;99.90;;;;;;5054759;28;20206;-80
2022/12/21 09:03:47;;;;;;;20.07;14.43;;;0.10;99.90;;;;;;5054616;28;20214;-81
2022/12/21 09:06:16;;;;;;;21.23;14.40;;;0.10;99.90;;;;;;5054632;28;20221;-80
2022/12/21 09:08:45;;;;;;;25.13;15.20;;;0.10;99.90;;;;;;5054353;28;20209;-81
2022/12/21 09:11:15;;;;;;;25.90;15.10;;;0.20;99.90;;;;;;5054526;28;20280;-81
2022/12/21 09:13:45;;;;;;;23.73;13.17;;;0.20;99.90;;;;;;5054663;28;20216;-81
2022/12/21 09:16:15;;;;;;;18.97;13.40;;;0.20;99.90;;;;;;5054690;28;20214;-81
2022/12/21 09:18:44;;;;;;;19.57;14.20;;;0.20;99.90;;;;;;5054018;28;20217;-81
2022/12/21 09:21:13;;;;;;;17.13;14.00;;;0.20;99.90;;;;;;5054452;28;20202;-80
2022/12/21 09:23:41;;;;;;;24.23;14.10;;;0.20;99.90;;;;;;5054249;28;20280;-80
2022/12/21 09:26:11;;;;;;;21.27;14.60;;;0.10;99.90;;;;;;5054140;28;20230;-81
2022/12/21 09:28:39;;;;;;;13.83;12.03;;;0.10;99.90;;;;;;5054149;28;20221;-82
2022/12/21 09:31:09;;;;;;;27.00;14.17;;;0.10;99.90;;;;;;5054181;28;20206;-80
2022/12/21 09:33:38;;;;;;;28.93;13.97;;;0.20;99.90;;;;;;5054291;28;20237;-80
2022/12/21 09:36:08;;;;;;;19.40;13.03;;;0.20;99.90;;;;;;5054136;28;20252;-81
2022/12/21 09:38:36;;;;;;;18.67;13.33;;;0.20;99.90;;;;;;5053941;28;20221;-82
2022/12/21 09:41:42;;;;;;;16.27;12.90;;;0.20;99.90;;;;;;5053764;28;20272;-81
2022/12/21 09:44:48;;;;;;;21.33;15.17;;;0.20;99.90;;;;;;5039093;28;20236;-81
2022/12/21 09:47:21;;;;;;;18.07;13.77;;;0.20;99.90;;;;;;4973170;28;20212;-80
2022/12/21 09:49:53;;;;;;;22.43;15.23;;;0.20;99.90;;;;;;4973068;28;20228;-81
2022/12/21 09:52:25;;;;;;;16.53;12.77;;;0.20;99.90;;;;;;5017761;28;20221;-81
2022/12/21 09:54:59;;;;;;;19.63;13.93;;;0.20;99.90;;;;;;5053926;28;20222;-81
2022/12/21 09:57:33;;;;;;;18.03;13.27;;;0.20;99.90;;;;;;5053536;28;20210;-80
2022/12/21 10:00:03;;;;;;;21.10;14.27;;;0.30;99.90;;;;;;5053439;28;20209;-81
2022/12/21 10:02:51;;;;;;;17.60;14.53;;;0.30;99.90;;;;;;5053537;28;20206;-81
2022/12/21 10:05:31;;;;;;;21.40;14.70;;;0.30;99.90;;;;;;5053625;28;20234;-81
2022/12/21 10:08:22;;;;;;;21.77;14.43;;;0.30;99.90;;;;;;5053383;28;20215;-82
2022/12/21 10:10:57;;;;;;;21.75;15.05;;;0.30;99.90;;;;;;5053523;28;20205;-80
2022/12/21 10:13:38;;;;;;;21.73;15.23;;;0.30;99.90;;;;;;5053265;28;20225;-81
2022/12/21 10:16:18;;;;;;;23.47;14.53;;;0.30;99.90;;;;;;5053470;28;20225;-81
2022/12/21 10:18:59;;;;;;;22.80;15.38;;;0.30;99.90;;;;;;5052857;28;20209;-81
2022/12/21 10:21:40;;;;;;;25.17;14.23;;;0.30;99.90;;;;;;5053346;28;20206;-81
2022/12/21 10:24:20;;;;;;;23.27;15.27;;;0.20;99.90;;;;;;5053287;28;20221;-81
2022/12/21 10:26:51;;;;;;;21.00;13.43;;;0.20;99.90;;;;;;5053037;28;20217;-81
2022/12/21 10:29:27;;;;;;;23.93;14.90;;;0.20;99.90;;;;;;5053351;28;20210;-80
2022/12/21 10:31:56;;;;;;;16.58;12.43;;;0.20;99.90;;;;;;5051992;28;20210;-80
2022/12/21 10:34:28;;;;;;;23.57;15.43;;;0.20;99.90;;;;;;5052852;28;20241;-81
2022/12/21 10:36:59;;;;;;;28.40;14.43;;;0.30;99.90;;;;;;5053063;28;20198;-81
2022/12/21 10:39:29;;;;;;;24.37;14.70;;;0.30;99.90;;;;;;5052969;28;20232;-81
2022/12/21 10:42:05;;;;;;;20.70;14.43;;;0.30;99.90;;;;;;5052766;28;20209;-81
2022/12/21 10:44:39;;;;;;;39.83;15.10;;;0.30;99.90;;;;;;5052778;28;20275;-81
2022/12/21 10:47:13;;;;;;;19.13;14.53;;;0.30;99.90;;;;;;5052627;28;20264;-81
2022/12/21 10:49:42;;;;;;;19.07;13.83;;;0.40;99.90;;;;;;5052950;28;20210;-81
2022/12/21 10:52:33;;;;;;;18.67;13.23;;;0.40;99.90;;;;;;5052707;28;20206;-81
2022/12/21 10:55:01;;;;;;;18.63;13.47;;;0.40;99.90;;;;;;5052245;28;20232;-81
2022/12/21 10:57:32;;;;;;;29.70;16.03;;;0.40;99.90;;;;;;5052546;28;20244;-82
2022/12/21 11:00:23;;;;;;;28.10;14.90;;;0.30;99.90;;;;;;5052621;28;20202;-82
2022/12/21 11:02:52;;;;;;;21.40;14.65;;;0.30;99.90;;;;;;5052621;28;20206;-81
2022/12/21 11:05:31;;;;;;;30.13;17.23;;;0.30;99.90;;;;;;5052370;28;20236;-81
2022/12/21 11:08:19;;;;;;;28.13;16.13;;;0.30;99.90;;;;;;5052461;28;20209;-81
2022/12/21 11:10:49;;;;;;;26.47;15.13;;;0.30;99.90;;;;;;5052576;28;20216;-81
2022/12/21 11:13:23;;;;;;;31.93;15.00;;;0.30;99.90;;;;;;5052396;28;20336;-81
2022/12/21 11:15:56;;;;;;;17.40;14.00;;;0.30;99.90;;;;;;5051920;28;20231;-81
2022/12/21 11:18:38;;;;;;;30.00;15.63;;;0.30;99.90;;;;;;5052305;28;20209;-81
2022/12/21 11:21:19;;;;;;;22.80;15.33;;;0.30;99.90;;;;;;5052865;28;20213;-81
2022/12/21 11:23:55;;;;;;;22.83;14.30;;;0.30;99.90;;;;;;5052464;28;20237;-81
2022/12/21 11:26:27;;;;;;;23.33;15.57;;;0.30;99.90;;;;;;5052106;28;20217;-81
2022/12/21 11:29:02;;;;;;;20.97;14.00;;;0.40;99.90;;;;;;5052223;28;20284;-81
2022/12/21 11:31:32;;;;;;;24.70;15.88;;;0.40;99.90;;;;;;5052563;28;20228;-82
2022/12/21 11:34:34;;;;;;;16.87;12.70;;;0.50;99.90;;;;;;5051824;28;20237;-81
2022/12/21 11:37:04;;;;;;;27.47;15.33;;;0.50;99.90;;;;;;5050725;28;20210;-81
2022/12/21 11:39:42;;;;;;;20.77;14.47;;;0.50;99.90;;;;;;5052144;28;20288;-82
2022/12/21 11:42:17;;;;;;;18.60;14.17;;;0.50;99.90;;;;;;5052454;28;20202;-80
2022/12/21 11:44:46;;;;;;;32.27;17.00;;;0.50;99.90;;;;;;5056391;28;20264;-81
2022/12/21 11:47:40;;;;;;;24.10;15.70;;;0.50;99.90;;;;;;5055789;28;20210;-83
2022/12/21 11:50:33;;;;;;;36.67;16.90;;;0.50;99.90;;;;;;5055910;28;20214;-81
2022/12/21 11:53:19;;;;;;;26.57;16.20;;;0.40;99.90;;;;;;5055922;28;20229;-81
2022/12/21 11:56:05;;;;;;;24.23;15.50;;;0.50;99.90;;;;;;5055762;28;20328;-81
2022/12/21 11:58:56;;;;;;;25.92;14.95;;;0.50;99.90;;;;;;5055898;28;20213;-81
2022/12/21 12:01:41;;;;;;;19.40;14.17;;;0.50;99.90;;;;;;5055991;28;20213;-81
2022/12/21 12:04:26;;;;;;;22.07;15.60;;;0.50;99.90;;;;;;5056054;28;20276;-81
2022/12/21 12:07:18;;;;;;;20.33;14.43;;;0.40;99.90;;;;;;5055618;28;20213;-81
2022/12/21 12:10:12;;;;;;;34.87;15.97;;;0.50;99.90;;;;;;5055832;28;20210;-81
2022/12/21 12:12:47;;;;;;;21.00;14.53;;;0.50;99.90;;;;;;5055514;28;20212;-81
2022/12/21 12:15:34;;;;;;;20.13;15.13;;;0.50;99.90;;;;;;5055224;28;20217;-81
2022/12/21 12:18:19;;;;;;;22.37;16.03;;;0.50;99.90;;;;;;5055343;28;20216;-81
2022/12/21 12:21:03;;;;;;;23.20;16.00;;;0.50;99.90;;;;;;5055505;28;20210;-81
2022/12/21 12:23:40;;;;;;;36.80;14.93;;;0.50;99.90;;;;;;5055431;28;20205;-81
2022/12/21 12:26:16;;;;;;;22.40;14.73;;;0.50;99.90;;;;;;5055179;28;20232;-81
2022/12/21 12:29:11;;;;;;;22.33;15.63;;;0.60;99.90;;;;;;5055140;28;20212;-81
2022/12/21 12:31:50;;;;;;;21.67;13.97;;;0.60;99.90;;;;;;5055110;28;20220;-81
2022/12/21 12:34:41;;;;;;;35.40;13.70;;;0.60;99.90;;;;;;5055079;28;20239;-81
2022/12/21 12:37:23;;;;;;;22.47;15.07;;;0.60;99.90;;;;;;5055354;28;20210;-81
2022/12/21 12:40:02;;;;;;;22.27;14.13;;;0.60;99.90;;;;;;5054983;28;20206;-82
2022/12/21 12:42:35;;;;;;;19.90;13.67;;;0.60;99.90;;;;;;5054828;28;20219;-81
2022/12/21 12:45:14;;;;;;;15.38;12.32;;;0.60;99.90;;;;;;5055320;28;20236;-81
2022/12/21 12:47:47;;;;;;;23.43;14.53;;;0.60;99.90;;;;;;5054703;28;20209;-81
2022/12/21 12:50:23;;;;;;;17.80;12.77;;;0.60;99.90;;;;;;5055267;28;20193;-81
2022/12/21 12:53:13;;;;;;;21.87;12.97;;;0.70;99.90;;;;;;5055080;28;20228;-81
2022/12/21 12:55:50;;;;;;;20.67;14.32;;;0.70;99.90;;;;;;5052015;28;20253;-82
2022/12/21 12:58:30;;;;;;;39.20;14.27;;;0.70;99.90;;;;;;5054600;28;20224;-81
2022/12/21 13:01:03;;;;;;;15.93;13.00;;;0.70;99.90;;;;;;5055011;28;20205;-81
2022/12/21 13:03:50;;;;;;;17.77;12.20;;;0.70;99.90;;;;;;5055317;28;20197;-81
2022/12/21 13:06:31;;;;;;;21.43;13.03;;;0.80;99.90;;;;;;5054967;28;20220;-80
2022/12/21 13:09:07;;;;;;;19.23;13.17;;;0.80;99.90;;;;;;5054259;28;20212;-81
2022/12/21 13:11:46;;;;;;;19.33;12.50;;;0.90;99.90;;;;;;5054711;28;20213;-81
2022/12/21 13:14:22;;;;;;;15.45;12.45;;;0.90;99.90;;;;;;5054519;28;20236;-81